Startpagina
METAR-TAF:

METAR-TAF

Vliegvelden :

Fairchild Air Force Base

Spokane, Washington, Verenigde Staten

breedte: 47-37N, lengte: 117-39W, hoogte: 750 m

Actueel weer

Dit bericht is 31 minuten geleden gemaakt, om 18:58 UTC
Wind 7 kt uit het oostnoordoosten
Temperatuur 2°C
Vochtigheid 80%
Druk 1026 hPa
Zicht: 16.1 km
Onbewolkt

METAR: KSKA 191858Z 06007KT 10SM CLR 02/M01 A3030 RMK AO2A SLP287 T00171009 $

Tijdstip: 11:29 (19:29 UTC)

Verwachting

Dit bericht is 29 minuten geleden gemaakt, om 19:00 UTC
Verwachting geldig van 19 om 19 UTC tot 21 om 01 UTC
Wind 6 kt uit het noordoosten
Zicht 10 km of meer
Onbewolkt
Wijzigt naar
van 20 om 08 UTC tot 20 om 09 UTC
Wind 6 kt uit het oostnoordoosten
Zicht: 4800 m
Onbewolkt
nevel
Wijzigt naar
van 20 om 15 UTC tot 20 om 16 UTC
Wind 6 kt uit het oostzuidoosten
Zicht 10 km of meer
Weinig wolken op 20000 ft

TAF: KSKA 191900Z 1919/2101 05006KT 9999 SKC QNH3021INS BECMG 2008/2009 06006KT 4800 BR SKC QNH3015INS BECMG 2015/2016 11006KT 9999 NSW FEW200 QNH3006INS TX04/1923Z TNM04/2012Z

Waarnemingen en weersverwachtingen van meer dan 4000 vliegvelden (METAR en TAF).

De beschikbare stations zijn de gele en rode punten op de kaart.

Ga met uw muis naar het station om de naam te zien.

Klik dan om waarnemingen en weersverwachtingen te zien.

kaart wijzigen: klik op de groene knoppen met een zwart kruis om in te zoomen, op de groene knop met een streepje om uit te zoomen of op de groene pijlen voor aangrenzende kaarten.


METAR-TAF: